Terminal Aerodrome Forecast
Issued by NWS

Home | Current Version | Previous Version | Text Only | Print | Product List | Glossary Off
Versions: 1 2 3 4 5 6 7 8 9 10 11 12 13 14 15 16 17 18 19 20

000
FTUS43 KBIS 221400 AAA
TAFMOT
TAF AMD
KMOT 221422Z 2214/2312 04007KT 3SM BR OVC007
      TEMPO 2214/2218 1/2SM FZFG OVC002
     FM221800 03010KT 4SM -SN BR OVC005
     FM222100 36014KT 6SM -SN BR OVC012
     FM230300 31016KT 4SM -SN BR OVC008=

USA.gov is the U.S. government's official web portal to all federal, state and local government web resources and services.